Time;durP1;ratioP1;P1;durP2;ratioP2;P2;SDS_P1;SDS_P2;PMS_P1;PMS_P2;Temp;Humidity;BMP_temperature;BMP_pressure;BME280_temperature;BME280_humidity;BME280_pressure;Samples;Min_cycle;Max_cycle;Signal;HPM_P1;HPM_P2
2022/06/06 00:02:24;;;;;;;14.88;10.98;;;20.20;58.80;;;;;;4934776;29;20461;-78
2022/06/06 00:04:49;;;;;;;13.48;10.32;;;20.20;58.90;;;;;;4936449;29;20035;-77
2022/06/06 00:07:15;;;;;;;12.98;9.55;;;20.20;58.90;;;;;;4950782;29;20452;-80
2022/06/06 00:09:41;;;;;;;12.70;9.73;;;20.20;58.90;;;;;;4918713;29;20024;-78
2022/06/06 00:12:07;;;;;;;14.45;10.52;;;20.20;58.90;;;;;;4935036;29;20023;-78
2022/06/06 00:14:34;;;;;;;11.93;9.15;;;20.20;58.90;;;;;;4934569;29;20443;-78
2022/06/06 00:16:59;;;;;;;12.95;9.73;;;20.20;59.00;;;;;;4938365;29;20086;-78
2022/06/06 00:19:25;;;;;;;13.43;10.48;;;20.20;59.00;;;;;;4938785;29;20368;-78
2022/06/06 00:21:51;;;;;;;12.38;8.95;;;20.20;59.00;;;;;;4954110;29;20028;-79
2022/06/06 00:24:17;;;;;;;13.15;9.32;;;20.20;59.00;;;;;;4938611;29;20106;-78
2022/06/06 00:26:43;;;;;;;13.55;9.68;;;20.10;59.00;;;;;;4939933;28;20055;-78
2022/06/06 00:29:13;;;;;;;12.88;9.50;;;20.10;59.00;;;;;;4939945;29;20034;-78
2022/06/06 00:37:09;;;;;;;11.98;8.90;;;20.10;59.60;;;;;;4938486;29;20056;-78
2022/06/06 00:39:35;;;;;;;11.70;8.48;;;20.00;59.00;;;;;;4939535;29;20155;-77
2022/06/06 00:42:01;;;;;;;10.77;8.98;;;20.00;59.00;;;;;;4939456;28;20115;-76
2022/06/06 00:44:33;;;;;;;11.65;8.18;;;20.00;59.00;;;;;;4923243;29;20055;-76
2022/06/06 00:47:14;;;;;;;10.93;7.82;;;20.00;59.20;;;;;;4953706;29;20118;-76
2022/06/06 00:49:44;;;;;;;12.10;8.15;;;19.90;59.10;;;;;;4953900;29;20055;-76
2022/06/06 00:52:24;;;;;;;11.05;8.55;;;19.90;59.10;;;;;;4953717;29;20027;-76
2022/06/06 00:54:52;;;;;;;10.93;7.38;;;19.90;59.20;;;;;;4939482;29;20038;-76
2022/06/06 00:57:25;;;;;;;10.35;7.53;;;19.90;59.20;;;;;;4939339;29;20027;-75
2022/06/06 00:59:53;;;;;;;9.85;7.28;;;19.80;59.10;;;;;;4938510;29;20031;-76
2022/06/06 01:02:19;;;;;;;10.40;7.18;;;19.80;59.10;;;;;;4938236;29;20034;-77
2022/06/06 01:04:46;;;;;;;9.93;7.75;;;19.90;59.20;;;;;;4922329;29;20036;-77
2022/06/06 01:07:12;;;;;;;9.90;7.90;;;19.80;59.20;;;;;;4939357;29;20093;-77
2022/06/06 01:09:41;;;;;;;9.32;7.07;;;19.80;59.20;;;;;;4953818;29;20032;-77
2022/06/06 01:12:11;;;;;;;9.65;6.95;;;19.80;59.20;;;;;;4922520;29;20031;-77
2022/06/06 01:14:52;;;;;;;9.07;7.10;;;19.80;59.20;;;;;;4938518;29;20028;-77
2022/06/06 01:17:40;;;;;;;8.25;6.22;;;19.70;59.30;;;;;;4937639;29;20059;-77
2022/06/06 01:20:14;;;;;;;10.25;7.05;;;19.80;59.40;;;;;;4937701;29;20114;-77
2022/06/06 01:23:14;;;;;;;9.95;7.22;;;19.70;59.20;;;;;;4953704;29;20062;-77
2022/06/06 01:25:58;;;;;;;9.23;6.45;;;19.70;59.40;;;;;;4952714;28;20040;-78
2022/06/06 01:28:47;;;;;;;8.93;6.32;;;19.70;59.40;;;;;;4938222;29;20068;-77
2022/06/06 01:31:18;;;;;;;8.20;6.28;;;19.60;59.40;;;;;;4952675;29;20023;-77
2022/06/06 01:33:57;;;;;;;8.30;6.22;;;19.60;59.30;;;;;;4937761;29;20038;-77
2022/06/06 01:36:27;;;;;;;9.43;6.75;;;19.60;59.50;;;;;;4936694;29;20031;-77
2022/06/06 01:38:54;;;;;;;8.80;6.22;;;19.60;59.40;;;;;;4937389;29;20102;-76
2022/06/06 01:41:32;;;;;;;9.48;7.07;;;19.60;59.40;;;;;;4938142;29;20036;-77
2022/06/06 01:44:19;;;;;;;8.60;6.03;;;19.60;59.50;;;;;;4953429;29;20028;-77
2022/06/06 01:46:47;;;;;;;8.50;6.00;;;19.60;59.50;;;;;;4936493;29;20031;-77
2022/06/06 01:49:15;;;;;;;8.15;5.93;;;19.50;59.30;;;;;;4938489;29;20023;-77
2022/06/06 01:51:41;;;;;;;8.05;5.75;;;19.50;59.40;;;;;;4921559;29;20035;-77
2022/06/06 01:54:07;;;;;;;8.38;5.90;;;19.50;59.50;;;;;;4953096;29;20036;-77
2022/06/06 01:56:38;;;;;;;8.65;6.18;;;19.50;59.50;;;;;;4952823;29;20386;-77
2022/06/06 01:59:05;;;;;;;8.75;6.55;;;19.50;59.50;;;;;;4936980;29;20031;-77
2022/06/06 02:01:31;;;;;;;7.00;5.50;;;19.50;59.60;;;;;;4936607;29;20020;-77
2022/06/06 02:03:58;;;;;;;8.68;6.15;;;19.50;59.60;;;;;;4937176;29;20063;-76
2022/06/06 02:06:25;;;;;;;8.48;5.95;;;19.50;59.60;;;;;;4920900;29;20024;-77
2022/06/06 02:08:51;;;;;;;8.73;6.18;;;19.50;59.60;;;;;;4936135;29;20131;-77
2022/06/06 02:11:18;;;;;;;7.93;5.75;;;19.40;59.60;;;;;;4936666;29;20032;-77
2022/06/06 02:13:44;;;;;;;7.47;5.40;;;19.40;59.60;;;;;;4937191;29;20031;-77
2022/06/06 02:16:10;;;;;;;8.43;5.82;;;19.40;59.60;;;;;;4937912;29;20024;-76
2022/06/06 02:18:36;;;;;;;8.93;6.03;;;19.40;59.60;;;;;;4951953;29;20095;-80
2022/06/06 02:21:03;;;;;;;7.15;5.32;;;19.40;59.70;;;;;;4920457;29;20063;-77
2022/06/06 02:23:30;;;;;;;8.20;5.90;;;19.40;59.70;;;;;;4952525;29;20032;-76
2022/06/06 02:25:56;;;;;;;7.60;5.80;;;19.40;59.70;;;;;;4952001;28;20107;-76
2022/06/06 02:28:23;;;;;;;8.00;5.65;;;19.40;59.70;;;;;;4935763;29;20035;-76
2022/06/06 02:30:49;;;;;;;7.57;5.35;;;19.30;59.70;;;;;;4937393;28;20372;-77
2022/06/06 02:33:16;;;;;;;7.88;5.63;;;19.30;59.70;;;;;;4920956;29;20027;-77
2022/06/06 02:35:42;;;;;;;8.65;5.80;;;19.30;59.70;;;;;;4920652;29;20032;-77
2022/06/06 02:38:10;;;;;;;8.80;6.15;;;19.30;59.70;;;;;;4920475;29;20045;-76
2022/06/06 02:40:36;;;;;;;7.88;5.65;;;19.30;59.80;;;;;;4937727;28;20023;-76
2022/06/06 02:43:02;;;;;;;8.32;5.80;;;19.30;59.80;;;;;;4936027;29;20027;-76
2022/06/06 02:45:28;;;;;;;8.85;6.43;;;19.20;59.70;;;;;;4919745;29;20303;-76
2022/06/06 02:47:56;;;;;;;8.00;5.60;;;19.30;59.80;;;;;;4920318;29;20087;-77
2022/06/06 02:50:25;;;;;;;8.23;6.20;;;19.30;59.80;;;;;;4936987;28;20055;-77
2022/06/06 02:52:52;;;;;;;8.85;6.60;;;19.30;59.90;;;;;;4936757;29;20028;-76
2022/06/06 02:55:18;;;;;;;8.13;6.10;;;19.20;59.80;;;;;;4935947;29;20035;-77
2022/06/06 02:57:46;;;;;;;8.15;6.15;;;19.20;59.90;;;;;;4920467;29;20441;-76
2022/06/06 03:00:16;;;;;;;9.90;6.75;;;19.20;59.90;;;;;;4951846;28;20027;-76
2022/06/06 03:02:42;;;;;;;9.32;6.25;;;19.20;59.90;;;;;;4935509;29;20059;-79
2022/06/06 03:05:09;;;;;;;8.15;6.22;;;19.20;59.90;;;;;;4937013;28;20063;-77
2022/06/06 03:07:47;;;;;;;8.70;5.93;;;19.20;60.00;;;;;;4920598;29;20066;-76
2022/06/06 03:10:32;;;;;;;8.93;6.30;;;19.20;60.00;;;;;;4951852;29;20059;-76
2022/06/06 03:13:20;;;;;;;7.95;6.03;;;19.20;60.00;;;;;;4936778;29;20027;-76
2022/06/06 03:22:13;;;;;;;7.57;5.68;;;19.10;60.00;;;;;;4936672;29;20449;-76
2022/06/06 03:25:02;;;;;;;6.80;5.57;;;19.10;59.90;;;;;;4936391;29;20024;-76
2022/06/06 03:28:00;;;;;;;8.32;5.78;;;19.10;60.10;;;;;;4936922;29;20036;-76
2022/06/06 03:31:31;;;;;;;8.43;6.45;;;19.00;60.10;;;;;;4951210;29;20103;-76
2022/06/06 03:34:22;;;;;;;8.02;5.93;;;19.00;60.20;;;;;;4877537;29;20036;-76
2022/06/06 03:36:59;;;;;;;8.75;5.78;;;19.00;60.10;;;;;;4934840;29;20051;-76
2022/06/06 03:39:31;;;;;;;8.02;6.22;;;19.00;60.10;;;;;;4951499;29;20058;-76
2022/06/06 03:42:25;;;;;;;9.07;6.82;;;19.00;60.10;;;;;;4935128;29;20039;-76
2022/06/06 03:45:15;;;;;;;7.53;5.68;;;19.00;60.20;;;;;;4936860;29;20028;-76
2022/06/06 03:47:55;;;;;;;8.45;6.07;;;19.00;60.10;;;;;;4936546;29;20062;-77
2022/06/06 03:50:33;;;;;;;8.77;6.00;;;19.00;60.10;;;;;;4935932;29;20031;-76
2022/06/06 03:53:05;;;;;;;9.07;6.85;;;19.00;60.20;;;;;;4936045;29;20087;-76
2022/06/06 03:55:44;;;;;;;7.60;6.03;;;19.00;60.20;;;;;;4935242;29;20032;-76
2022/06/06 03:58:14;;;;;;;7.85;6.07;;;19.00;60.20;;;;;;4919499;29;20060;-76
2022/06/06 04:00:41;;;;;;;8.35;5.70;;;19.00;60.20;;;;;;4935556;29;20028;-76
2022/06/06 04:03:09;;;;;;;8.50;6.22;;;18.90;60.20;;;;;;4919321;29;20034;-76
2022/06/06 04:05:36;;;;;;;9.63;6.90;;;19.00;60.20;;;;;;4951321;29;20038;-76
2022/06/06 04:08:03;;;;;;;8.90;6.13;;;19.00;60.20;;;;;;4935888;29;20059;-76
2022/06/06 04:10:53;;;;;;;8.25;6.07;;;18.90;60.20;;;;;;4936039;29;20094;-77
2022/06/06 04:13:22;;;;;;;8.18;5.70;;;18.90;60.90;;;;;;4951134;29;20024;-77
2022/06/06 04:16:03;;;;;;;7.65;5.88;;;19.00;60.20;;;;;;4950762;29;20024;-76
2022/06/06 04:18:48;;;;;;;7.28;5.53;;;18.90;60.20;;;;;;4935142;29;20044;-77
2022/06/06 04:21:20;;;;;;;8.07;6.07;;;18.90;60.20;;;;;;4951373;29;20107;-76
2022/06/06 04:24:13;;;;;;;7.85;5.93;;;19.00;60.30;;;;;;4935776;29;20467;-76
2022/06/06 04:26:56;;;;;;;6.88;5.05;;;18.90;60.40;;;;;;4935626;29;20477;-78
2022/06/06 04:29:28;;;;;;;8.13;5.82;;;18.90;60.40;;;;;;4935007;29;20495;-76
2022/06/06 04:32:16;;;;;;;7.47;5.88;;;18.90;60.40;;;;;;4934604;29;20026;-77
2022/06/06 04:35:07;;;;;;;7.82;5.82;;;18.90;60.40;;;;;;4934634;29;20024;-77
2022/06/06 04:37:36;;;;;;;8.38;6.05;;;18.90;60.50;;;;;;4950355;29;20052;-76
2022/06/06 04:40:08;;;;;;;8.02;6.07;;;18.90;60.40;;;;;;4934384;29;20040;-76
2022/06/06 04:42:43;;;;;;;8.45;6.32;;;18.90;60.50;;;;;;4950235;29;20087;-76
2022/06/06 04:45:28;;;;;;;8.88;6.32;;;18.90;60.50;;;;;;4951050;29;20023;-76
2022/06/06 04:47:56;;;;;;;9.82;7.05;;;18.90;60.50;;;;;;4936005;29;20376;-76
2022/06/06 04:50:22;;;;;;;8.88;6.68;;;18.90;60.50;;;;;;4934378;29;20050;-77
2022/06/06 04:52:55;;;;;;;9.63;6.90;;;18.90;60.40;;;;;;4918709;29;20039;-76
2022/06/06 04:55:23;;;;;;;8.77;7.03;;;18.90;60.50;;;;;;4935503;29;20031;-76
2022/06/06 04:57:53;;;;;;;9.57;6.45;;;18.90;60.50;;;;;;4934478;29;20095;-76
2022/06/06 05:00:20;;;;;;;8.48;6.50;;;18.90;60.50;;;;;;4934347;29;20058;-76
2022/06/06 05:02:46;;;;;;;8.60;6.53;;;18.90;60.50;;;;;;4939302;29;20043;-75
2022/06/06 05:05:12;;;;;;;8.95;6.90;;;18.90;60.50;;;;;;4938785;29;20064;-76
2022/06/06 05:07:53;;;;;;;10.07;7.20;;;18.90;60.50;;;;;;4937611;29;20038;-76
2022/06/06 05:10:40;;;;;;;9.90;7.30;;;18.80;60.60;;;;;;4938772;29;20036;-76
2022/06/06 05:13:20;;;;;;;9.18;6.72;;;18.90;60.60;;;;;;4938831;29;20031;-76
2022/06/06 05:16:22;;;;;;;10.23;7.15;;;18.90;60.60;;;;;;4937982;29;20027;-76
2022/06/06 05:19:06;;;;;;;8.57;6.90;;;18.90;60.70;;;;;;4938485;29;20122;-75
2022/06/06 05:22:08;;;;;;;10.55;7.35;;;18.80;60.60;;;;;;4939438;29;20075;-76
2022/06/06 05:24:52;;;;;;;8.95;6.57;;;18.80;60.70;;;;;;4954480;29;20448;-76
2022/06/06 05:27:54;;;;;;;8.45;7.00;;;18.80;60.50;;;;;;4938264;29;20094;-76
2022/06/06 05:30:26;;;;;;;9.32;6.43;;;18.80;60.70;;;;;;4954122;29;20028;-76
2022/06/06 05:33:01;;;;;;;9.00;7.10;;;18.80;60.60;;;;;;4939268;29;20106;-76
2022/06/06 05:35:49;;;;;;;9.07;7.10;;;18.80;60.70;;;;;;4938766;29;20027;-76
2022/06/06 05:38:48;;;;;;;9.00;6.70;;;18.80;60.80;;;;;;4938340;29;20119;-76
2022/06/06 05:41:23;;;;;;;8.57;6.32;;;18.80;60.70;;;;;;4930423;29;20035;-76
2022/06/06 05:44:07;;;;;;;9.45;7.10;;;18.80;60.70;;;;;;4937572;29;20047;-76
2022/06/06 05:47:14;;;;;;;8.43;6.97;;;18.80;60.70;;;;;;4939270;29;20103;-76
2022/06/06 05:49:55;;;;;;;7.90;5.93;;;18.80;60.80;;;;;;4933552;29;20126;-76
2022/06/06 05:52:21;;;;;;;8.73;6.63;;;18.80;60.80;;;;;;4937570;29;20028;-75
2022/06/06 05:54:55;;;;;;;8.70;6.25;;;18.80;60.80;;;;;;4953123;29;20031;-76
2022/06/06 05:57:44;;;;;;;8.73;6.50;;;18.80;60.80;;;;;;4937055;29;20377;-76
2022/06/06 06:00:25;;;;;;;8.50;6.30;;;18.70;60.80;;;;;;4937328;29;20114;-75
2022/06/06 06:03:16;;;;;;;7.53;5.97;;;18.80;60.80;;;;;;4952916;28;20103;-75
2022/06/06 06:06:12;;;;;;;8.18;6.22;;;18.80;60.90;;;;;;4953800;29;20031;-76
2022/06/06 06:08:46;;;;;;;8.93;5.80;;;18.80;60.90;;;;;;4952230;29;20027;-76
2022/06/06 06:11:15;;;;;;;7.75;5.55;;;18.80;60.90;;;;;;4936539;29;20498;-79
2022/06/06 06:14:13;;;;;;;8.15;5.82;;;18.80;60.90;;;;;;4936509;29;20353;-76
2022/06/06 06:16:48;;;;;;;8.00;5.57;;;18.80;61.10;;;;;;4937731;29;20032;-76
2022/06/06 06:19:18;;;;;;;7.60;5.47;;;18.80;60.90;;;;;;4938470;29;20038;-76
2022/06/06 06:21:56;;;;;;;6.78;5.15;;;18.80;60.90;;;;;;4936181;29;20050;-76
2022/06/06 06:24:31;;;;;;;7.07;5.22;;;18.80;60.90;;;;;;4921652;29;20039;-76
2022/06/06 06:26:58;;;;;;;6.88;5.03;;;18.80;61.10;;;;;;4936303;29;20059;-77
2022/06/06 06:29:24;;;;;;;6.57;4.65;;;18.80;60.90;;;;;;4936559;29;20496;-76
2022/06/06 06:31:59;;;;;;;6.45;5.05;;;18.80;61.60;;;;;;4937935;29;20031;-76
2022/06/06 06:34:53;;;;;;;6.05;4.53;;;18.80;61.00;;;;;;4937996;29;20032;-77
2022/06/06 06:37:38;;;;;;;7.17;5.07;;;18.90;61.00;;;;;;4952156;29;20032;-76
2022/06/06 06:40:23;;;;;;;5.55;4.20;;;18.80;61.00;;;;;;4952987;29;20036;-77
2022/06/06 06:43:10;;;;;;;5.72;4.50;;;18.80;60.90;;;;;;4952133;29;20039;-77
2022/06/06 06:45:51;;;;;;;6.28;4.55;;;18.90;60.90;;;;;;4937394;29;20035;-77
2022/06/06 06:48:37;;;;;;;5.82;4.10;;;18.90;61.00;;;;;;4937509;29;20090;-79
2022/06/06 06:51:11;;;;;;;6.00;4.40;;;18.90;61.10;;;;;;4952282;29;20206;-76
2022/06/06 06:53:39;;;;;;;5.50;4.13;;;18.90;61.70;;;;;;4936305;29;20028;-76
2022/06/06 06:56:40;;;;;;;6.03;4.30;;;18.90;60.90;;;;;;4937151;29;20027;-76
2022/06/06 06:59:41;;;;;;;5.57;4.28;;;18.90;61.10;;;;;;4935353;29;20040;-76
2022/06/06 07:08:35;;;;;;;4.63;3.40;;;18.90;60.90;;;;;;4936393;29;20477;-77
2022/06/06 07:11:28;;;;;;;5.10;3.75;;;19.00;60.90;;;;;;4936582;29;20027;-76
2022/06/06 07:14:21;;;;;;;5.07;3.90;;;18.90;61.00;;;;;;4935496;29;20028;-75
2022/06/06 07:16:53;;;;;;;4.97;3.80;;;18.90;60.90;;;;;;4937024;29;20078;-77
2022/06/06 07:19:50;;;;;;;5.82;4.03;;;18.90;60.90;;;;;;4935461;29;20019;-77
2022/06/06 07:22:17;;;;;;;5.63;3.78;;;18.90;61.00;;;;;;4912801;29;20040;-77
2022/06/06 07:24:45;;;;;;;5.10;3.92;;;19.00;60.80;;;;;;4936337;28;20476;-77
2022/06/06 07:27:11;;;;;;;4.80;3.28;;;19.00;60.90;;;;;;4935121;29;20058;-76
2022/06/06 07:29:38;;;;;;;5.18;3.60;;;19.10;60.90;;;;;;4936634;29;20111;-77
2022/06/06 07:32:28;;;;;;;4.38;3.35;;;19.10;60.90;;;;;;4935993;29;20484;-77
2022/06/06 07:35:17;;;;;;;5.40;3.45;;;19.10;61.00;;;;;;4919779;29;20028;-77
2022/06/06 07:38:00;;;;;;;4.80;3.33;;;19.10;60.90;;;;;;4950712;29;20066;-76
2022/06/06 07:40:51;;;;;;;4.25;3.33;;;19.10;60.80;;;;;;4934888;29;20140;-76
2022/06/06 07:43:27;;;;;;;4.05;2.88;;;19.20;60.90;;;;;;4936068;29;20051;-78
2022/06/06 07:46:17;;;;;;;3.65;2.92;;;19.20;60.70;;;;;;4951290;29;20040;-76
2022/06/06 07:49:06;;;;;;;4.72;3.38;;;19.20;60.70;;;;;;4950396;29;20042;-77
2022/06/06 07:51:58;;;;;;;3.55;2.78;;;19.20;60.70;;;;;;4936089;29;20109;-77
2022/06/06 07:54:54;;;;;;;4.22;2.88;;;19.20;60.70;;;;;;4928613;29;20134;-76
2022/06/06 07:57:30;;;;;;;3.95;2.85;;;19.30;60.60;;;;;;4935671;29;20465;-76
2022/06/06 08:00:25;;;;;;;4.15;3.20;;;19.40;60.50;;;;;;4936104;29;20032;-76
2022/06/06 08:03:16;;;;;;;3.92;2.92;;;19.40;60.50;;;;;;4935076;29;20035;-76
2022/06/06 08:06:03;;;;;;;3.63;2.50;;;19.40;60.30;;;;;;4934491;29;20032;-77
2022/06/06 08:09:08;;;;;;;4.88;2.90;;;19.50;60.20;;;;;;4950814;29;20062;-78
2022/06/06 08:12:01;;;;;;;2.63;2.28;;;19.50;60.20;;;;;;4936318;29;20048;-80
2022/06/06 08:14:35;;;;;;;2.85;1.90;;;19.60;60.00;;;;;;4936151;29;20028;-77
2022/06/06 08:17:22;;;;;;;3.72;2.25;;;19.70;59.90;;;;;;4936579;29;20047;-78
2022/06/06 08:19:48;;;;;;;2.22;1.48;;;19.70;59.80;;;;;;4936337;29;20035;-79
2022/06/06 08:22:15;;;;;;;2.72;1.80;;;19.80;59.50;;;;;;4935503;29;20026;-77
2022/06/06 08:24:45;;;;;;;1.73;1.58;;;19.90;59.50;;;;;;4934472;29;20039;-77
2022/06/06 08:27:15;;;;;;;2.15;1.60;;;19.90;59.40;;;;;;4935803;29;20365;-78
2022/06/06 08:29:44;;;;;;;1.55;1.45;;;20.00;59.30;;;;;;4934848;29;20461;-78
2022/06/06 08:32:11;;;;;;;1.75;1.48;;;20.00;59.20;;;;;;4950782;29;20079;-79
2022/06/06 08:34:37;;;;;;;2.25;1.50;;;20.10;59.20;;;;;;4934497;29;20031;-78
2022/06/06 08:37:24;;;;;;;1.95;1.40;;;20.20;59.10;;;;;;4936718;29;20036;-78
2022/06/06 08:40:11;;;;;;;2.70;1.33;;;20.20;59.20;;;;;;4939311;29;20034;-77
2022/06/06 08:43:04;;;;;;;1.83;1.48;;;20.30;59.00;;;;;;4939011;29;20038;-79
2022/06/06 08:45:33;;;;;;;1.40;1.30;;;20.30;59.00;;;;;;4938031;29;20083;-77
2022/06/06 08:48:26;;;;;;;1.40;1.30;;;20.40;58.80;;;;;;4953644;29;20363;-77
2022/06/06 08:50:59;;;;;;;1.95;1.30;;;20.40;58.90;;;;;;4938779;29;20042;-79
2022/06/06 08:53:44;;;;;;;1.50;1.40;;;20.50;58.80;;;;;;4938868;29;20035;-80
2022/06/06 08:56:31;;;;;;;2.67;1.50;;;20.50;58.80;;;;;;4954418;29;20449;-79
2022/06/06 08:59:16;;;;;;;1.77;1.30;;;20.60;58.50;;;;;;4939519;29;20171;-79
2022/06/06 09:02:14;;;;;;;2.17;1.40;;;20.60;58.20;;;;;;4953622;29;20027;-79
2022/06/06 09:05:05;;;;;;;1.20;1.10;;;20.70;58.10;;;;;;4937703;29;20135;-77
2022/06/06 09:07:34;;;;;;;1.35;1.20;;;20.70;58.00;;;;;;4937576;29;20101;-77
2022/06/06 09:10:31;;;;;;;1.80;1.30;;;20.80;57.90;;;;;;4953842;29;20038;-77
2022/06/06 09:13:19;;;;;;;1.58;1.20;;;20.80;57.90;;;;;;4937377;29;20031;-76
2022/06/06 09:16:08;;;;;;;1.13;0.95;;;20.90;57.90;;;;;;4939092;29;20071;-77
2022/06/06 09:18:56;;;;;;;1.45;1.25;;;21.00;57.90;;;;;;4953988;29;20039;-75
2022/06/06 09:21:51;;;;;;;2.47;1.08;;;21.00;57.80;;;;;;4953275;29;20024;-76
2022/06/06 09:24:45;;;;;;;1.77;1.00;;;21.10;57.70;;;;;;4938317;29;20557;-77
2022/06/06 09:27:48;;;;;;;1.00;1.00;;;21.20;57.70;;;;;;4937399;29;20453;-76
2022/06/06 09:30:38;;;;;;;1.02;0.93;;;21.20;57.60;;;;;;4953256;29;20374;-76
2022/06/06 09:33:10;;;;;;;1.95;1.15;;;21.30;57.60;;;;;;4938256;29;20477;-76
2022/06/06 09:35:39;;;;;;;1.85;1.10;;;21.40;57.50;;;;;;4953851;29;20038;-76
2022/06/06 09:38:11;;;;;;;1.17;1.00;;;21.50;57.50;;;;;;4937930;29;20038;-76
2022/06/06 09:40:52;;;;;;;1.40;1.13;;;21.50;57.40;;;;;;4938213;29;20023;-77
2022/06/06 09:43:39;;;;;;;1.10;1.00;;;21.60;57.30;;;;;;4938134;29;20028;-76
2022/06/06 09:46:29;;;;;;;1.15;1.00;;;21.70;57.30;;;;;;4938058;29;20027;-76
2022/06/06 09:49:17;;;;;;;2.42;1.15;;;21.70;57.10;;;;;;4936893;29;20031;-77
2022/06/06 09:52:04;;;;;;;3.28;1.13;;;21.70;56.80;;;;;;4952778;29;20040;-78
2022/06/06 10:01:21;;;;;;;1.83;1.20;;;21.90;56.50;;;;;;4937375;29;20349;-77
2022/06/06 10:04:15;;;;;;;1.90;1.20;;;21.90;56.40;;;;;;4934977;29;20036;-77
2022/06/06 10:06:50;;;;;;;2.67;1.33;;;22.00;56.50;;;;;;4939553;29;20028;-79
2022/06/06 10:09:53;;;;;;;4.05;1.67;;;22.00;56.50;;;;;;4938726;29;20111;-77
2022/06/06 10:12:30;;;;;;;1.60;1.00;;;22.00;56.60;;;;;;4937916;29;20024;-77
2022/06/06 10:15:14;;;;;;;2.33;1.20;;;22.10;56.50;;;;;;4937034;29;20054;-77
2022/06/06 10:17:57;;;;;;;2.30;1.10;;;22.10;56.60;;;;;;4938008;29;20446;-77
2022/06/06 10:21:01;;;;;;;1.30;1.08;;;22.10;56.50;;;;;;4952722;29;20032;-76
2022/06/06 10:23:54;;;;;;;2.05;1.15;;;22.20;56.60;;;;;;4937576;29;20039;-78
2022/06/06 10:26:54;;;;;;;2.28;1.05;;;22.20;56.50;;;;;;4938050;29;20036;-77
2022/06/06 10:33:06;;;;;;;1.30;1.10;;;22.30;56.40;;;;;;4937538;29;20445;-79
2022/06/06 10:36:00;;;;;;;1.38;1.10;;;22.40;56.40;;;;;;4937961;29;20484;-79
2022/06/06 10:38:56;;;;;;;2.95;0.90;;;22.40;56.40;;;;;;4937372;29;20499;-79
2022/06/06 10:41:43;;;;;;;0.85;0.80;;;22.40;56.30;;;;;;4937737;29;20051;-79
2022/06/06 10:44:20;;;;;;;1.10;1.00;;;22.50;56.30;;;;;;4937615;29;20106;-79
2022/06/06 10:46:46;;;;;;;1.00;1.00;;;22.50;56.20;;;;;;4952312;29;20123;-80
2022/06/06 10:49:33;;;;;;;1.23;1.10;;;22.60;56.20;;;;;;4937428;29;20107;-79
2022/06/06 10:52:18;;;;;;;1.20;1.00;;;22.60;56.30;;;;;;4937450;29;20132;-78
2022/06/06 10:54:58;;;;;;;1.55;1.05;;;22.60;56.30;;;;;;4937439;29;20032;-79
2022/06/06 10:57:57;;;;;;;1.52;1.10;;;22.70;56.20;;;;;;4935831;29;20103;-79
2022/06/06 11:00:42;;;;;;;1.35;1.23;;;22.70;56.30;;;;;;4888482;29;20046;-78
2022/06/06 11:03:25;;;;;;;1.05;1.00;;;22.70;56.20;;;;;;4936604;29;20038;-78
2022/06/06 11:06:09;;;;;;;1.77;1.15;;;22.80;56.10;;;;;;4936967;29;20023;-79
2022/06/06 11:08:59;;;;;;;1.70;1.20;;;22.80;56.00;;;;;;4951716;29;20082;-78
2022/06/06 11:11:55;;;;;;;1.40;1.30;;;22.90;56.10;;;;;;4952144;29;20028;-85
2022/06/06 11:14:44;;;;;;;1.30;1.20;;;22.90;56.00;;;;;;4919671;29;20028;-79
2022/06/06 11:17:24;;;;;;;1.67;1.25;;;22.90;56.00;;;;;;4937186;29;20059;-80
2022/06/06 11:20:09;;;;;;;1.80;1.40;;;22.90;55.90;;;;;;4951590;29;20031;-78
2022/06/06 11:22:41;;;;;;;1.80;1.40;;;22.90;55.90;;;;;;4951741;29;20024;-78
2022/06/06 11:25:14;;;;;;;2.30;1.60;;;22.90;55.90;;;;;;4936388;29;20064;-78
2022/06/06 11:27:52;;;;;;;1.42;1.33;;;22.90;56.00;;;;;;4936320;29;20055;-78
2022/06/06 11:30:55;;;;;;;2.15;1.50;;;23.00;56.10;;;;;;4935483;29;20055;-79
2022/06/06 11:33:26;;;;;;;1.30;1.20;;;22.90;56.10;;;;;;4951263;29;20044;-79
2022/06/06 11:36:09;;;;;;;1.65;1.27;;;23.00;56.10;;;;;;4935106;29;20039;-78
2022/06/06 11:39:16;;;;;;;2.33;1.50;;;22.90;56.10;;;;;;4936359;29;20089;-78
2022/06/06 11:42:00;;;;;;;2.20;1.63;;;22.90;56.20;;;;;;4935042;29;20435;-78
2022/06/06 11:44:48;;;;;;;1.90;1.38;;;22.90;56.10;;;;;;4951816;29;20042;-78
2022/06/06 11:47:26;;;;;;;1.50;1.27;;;22.90;56.30;;;;;;4950675;29;20035;-78
2022/06/06 11:50:36;;;;;;;2.47;1.40;;;22.90;56.30;;;;;;4935727;29;20492;-78
2022/06/06 11:53:23;;;;;;;1.50;1.40;;;22.90;56.40;;;;;;4950863;29;20039;-78
2022/06/06 11:55:52;;;;;;;1.35;1.25;;;22.90;56.30;;;;;;4936376;29;20031;-78
2022/06/06 11:58:46;;;;;;;1.20;1.13;;;22.90;56.30;;;;;;4950644;29;20028;-78
2022/06/06 12:01:36;;;;;;;1.30;1.20;;;22.90;56.50;;;;;;4936636;29;20036;-78
2022/06/06 12:04:39;;;;;;;2.30;1.60;;;22.90;56.40;;;;;;4934679;29;20038;-78
2022/06/06 12:07:20;;;;;;;1.23;1.13;;;22.90;56.50;;;;;;4935577;29;20051;-78
2022/06/06 12:09:51;;;;;;;1.25;1.20;;;22.90;56.50;;;;;;4950830;29;20090;-78
2022/06/06 12:12:51;;;;;;;1.33;1.23;;;22.90;56.40;;;;;;4938206;29;20024;-77
2022/06/06 12:15:39;;;;;;;2.05;1.55;;;22.90;56.60;;;;;;4939549;29;20039;-79
2022/06/06 12:18:29;;;;;;;1.27;1.17;;;22.90;56.50;;;;;;4938835;29;20487;-79
2022/06/06 12:21:33;;;;;;;1.33;1.10;;;22.90;56.60;;;;;;4938781;29;20031;-78
2022/06/06 12:24:29;;;;;;;0.93;0.93;;;22.90;56.60;;;;;;4939491;29;20020;-78
2022/06/06 12:27:19;;;;;;;0.93;0.93;;;23.00;56.60;;;;;;4954176;28;20357;-78
2022/06/06 12:30:03;;;;;;;1.20;1.10;;;23.00;56.70;;;;;;4939593;29;20027;-81
2022/06/06 12:32:48;;;;;;;1.60;1.10;;;22.90;56.60;;;;;;4955002;29;20031;-78
2022/06/06 12:35:27;;;;;;;1.67;1.13;;;23.00;56.70;;;;;;4953965;29;20027;-79
2022/06/06 12:38:24;;;;;;;1.13;1.00;;;22.90;56.50;;;;;;4939568;29;20042;-78
2022/06/06 12:41:11;;;;;;;1.65;1.30;;;22.90;56.60;;;;;;4938209;29;20031;-79
2022/06/06 12:43:50;;;;;;;1.17;0.90;;;22.90;56.60;;;;;;4939222;29;20050;-79
2022/06/06 12:46:54;;;;;;;1.20;1.10;;;22.90;56.50;;;;;;4954634;29;20059;-78
2022/06/06 12:49:34;;;;;;;1.55;1.08;;;22.90;56.60;;;;;;4954474;29;20508;-77
2022/06/06 12:52:27;;;;;;;2.55;1.20;;;22.90;56.40;;;;;;4940935;29;20079;-85
2022/06/06 12:55:30;;;;;;;1.02;1.02;;;22.90;56.50;;;;;;4939939;29;20445;-77
2022/06/06 12:58:22;;;;;;;1.10;1.00;;;22.90;56.50;;;;;;4953603;29;20050;-80
2022/06/06 13:04:11;;;;;;;1.73;1.15;;;22.90;56.50;;;;;;4938618;29;20421;-79
2022/06/06 13:06:56;;;;;;;1.67;1.10;;;22.80;56.40;;;;;;4937653;29;20027;-78
2022/06/06 13:09:22;;;;;;;0.90;0.90;;;22.80;56.40;;;;;;4922046;29;20139;-79
2022/06/06 13:11:56;;;;;;;0.98;0.98;;;22.80;56.40;;;;;;4938549;29;20375;-78
2022/06/06 13:14:44;;;;;;;1.10;1.00;;;22.80;56.50;;;;;;4939797;29;20046;-78
2022/06/06 13:17:54;;;;;;;1.85;1.10;;;22.80;56.50;;;;;;4953845;29;20480;-78
2022/06/06 13:20:46;;;;;;;1.05;1.05;;;22.80;56.60;;;;;;4953881;29;20027;-78
2022/06/06 13:23:30;;;;;;;1.50;1.10;;;22.80;56.50;;;;;;4918104;29;20057;-78
2022/06/06 13:26:11;;;;;;;1.20;1.10;;;22.80;56.50;;;;;;4953154;28;20133;-78
2022/06/06 13:28:51;;;;;;;1.60;0.95;;;22.80;56.50;;;;;;4953502;29;20468;-77
2022/06/06 13:31:54;;;;;;;1.00;0.95;;;22.80;56.50;;;;;;4938942;29;20027;-78
2022/06/06 13:34:31;;;;;;;0.93;0.90;;;22.80;56.60;;;;;;4921790;29;20027;-78
2022/06/06 13:37:19;;;;;;;1.38;0.80;;;22.80;56.50;;;;;;4953670;29;20023;-77
2022/06/06 13:40:02;;;;;;;1.08;0.85;;;22.80;56.50;;;;;;4953535;29;20115;-79
2022/06/06 13:43:01;;;;;;;1.52;0.93;;;22.80;56.50;;;;;;4938999;29;20035;-80
2022/06/06 13:45:47;;;;;;;1.10;1.00;;;22.80;56.60;;;;;;4918512;29;20039;-80
2022/06/06 13:48:27;;;;;;;0.90;0.90;;;22.80;56.50;;;;;;4937475;29;20038;-78
2022/06/06 13:51:05;;;;;;;1.23;1.13;;;22.80;56.50;;;;;;4937763;29;20047;-78
2022/06/06 13:54:00;;;;;;;1.33;1.08;;;22.80;56.50;;;;;;4953238;29;20032;-79
2022/06/06 13:56:42;;;;;;;1.00;0.90;;;22.80;56.40;;;;;;4938325;29;20023;-79
2022/06/06 13:59:46;;;;;;;1.35;0.98;;;22.80;56.40;;;;;;4939085;29;20035;-79
2022/06/06 14:02:21;;;;;;;0.93;0.88;;;22.80;56.40;;;;;;4938846;29;20146;-79
2022/06/06 14:04:52;;;;;;;;;;;22.80;56.30;;;;;;4938943;29;20107;-78
2022/06/06 14:07:56;;;;;;;1.25;0.90;;;22.80;56.20;;;;;;4953009;29;20025;-79
2022/06/06 14:10:24;;;;;;;1.02;0.75;;;22.80;56.30;;;;;;4938109;29;20038;-79
2022/06/06 14:13:02;;;;;;;1.85;0.90;;;22.80;56.20;;;;;;4953598;29;20115;-79
2022/06/06 14:15:28;;;;;;;1.10;0.80;;;22.80;56.40;;;;;;4953287;29;20295;-80
2022/06/06 14:18:06;;;;;;;1.08;0.93;;;22.80;56.30;;;;;;4937411;29;20056;-81
2022/06/06 14:20:41;;;;;;;1.13;0.90;;;22.80;56.40;;;;;;4938715;29;20028;-79
2022/06/06 14:23:25;;;;;;;1.70;0.90;;;22.80;56.40;;;;;;4939073;29;20076;-84
2022/06/06 14:25:58;;;;;;;1.42;1.02;;;22.80;56.50;;;;;;4940885;28;20121;-82